Preview of NWS' New Version of Forecast
This preview is not operational and should not be used for support decisions.

Terminal Aerodrome Forecast (TAF)

Issued by National Weather Service (NWS)

                            
000
FTUS42 KMFL 160534
TAFMIA
TAF
KMIA 160534Z 1606/1712 08005KT P6SM VCSH SCT025 SCT100 SCT250
     FM161500 12010KT P6SM SCT025 SCT080 BKN150
     FM162300 11008KT P6SM SCT025 SCT100 SCT250
     FM170200 10006KT P6SM FEW025 SCT100 SCT250=